Time;durP1;ratioP1;P1;durP2;ratioP2;P2;SDS_P1;SDS_P2;PMS_P1;PMS_P2;Temp;Humidity;BMP_temperature;BMP_pressure;BME280_temperature;BME280_humidity;BME280_pressure;Samples;Min_cycle;Max_cycle;Signal;HPM_P1;HPM_P2
2022/11/03 00:00:39;;;;;;;;;;;10.20;99.90;;;;;;5045456;28;19964;-64
2022/11/03 00:03:07;;;;;;;;;;;10.20;99.90;;;;;;5040715;28;20432;-64
2022/11/03 00:08:17;;;;;;;;;;;10.00;99.90;;;;;;5034812;28;20435;-64
2022/11/03 00:10:45;;;;;;;;;;;10.10;99.90;;;;;;5048988;28;20475;-64
2022/11/03 00:13:13;;;;;;;;;;;10.10;99.90;;;;;;5049217;28;19968;-65
2022/11/03 00:15:48;;;;;;;;;;;9.90;99.90;;;;;;5048951;28;19964;-64
2022/11/03 00:18:16;;;;;;;;;;;9.70;99.90;;;;;;5045816;28;19975;-64
2022/11/03 00:20:44;;;;;;;;;;;9.50;99.90;;;;;;5052024;28;19982;-64
2022/11/03 00:23:11;;;;;;;;;;;9.40;99.90;;;;;;5054075;28;19974;-64
2022/11/03 00:25:39;;;;;;;;;;;9.30;99.90;;;;;;5049918;28;20436;-64
2022/11/03 00:28:07;;;;;;;;;;;9.30;99.90;;;;;;5052976;28;19968;-64
2022/11/03 00:30:35;;;;;;;;;;;9.30;99.90;;;;;;5052528;28;20389;-64
2022/11/03 00:33:04;;;;;;;;;;;9.20;99.90;;;;;;5049802;28;20487;-64
2022/11/03 00:35:32;;;;;;;;;;;8.90;99.90;;;;;;5044936;28;19979;-65
2022/11/03 00:38:00;;;;;;;;;;;8.90;99.90;;;;;;5048259;28;19964;-64
2022/11/03 00:40:27;;;;;;;;;;;8.90;99.90;;;;;;5050411;28;19964;-65
2022/11/03 00:42:55;;;;;;;;;;;8.80;99.90;;;;;;5052723;28;19973;-64
2022/11/03 00:45:23;;;;;;;;;;;8.90;99.90;;;;;;5051316;28;19979;-64
2022/11/03 00:50:42;;;;;;;;;;;8.90;99.90;;;;;;5050778;28;19964;-64
2022/11/03 00:53:11;;;;;;;;;;;8.90;99.90;;;;;;5051936;28;20311;-65
2022/11/03 00:55:39;;;;;;;;;;;9.00;99.90;;;;;;5051568;28;20337;-64
2022/11/03 00:58:07;;;;;;;;;;;8.80;99.90;;;;;;5054750;28;19968;-64
2022/11/03 01:00:35;;;;;;;;;;;8.80;99.90;;;;;;5067304;28;19967;-64
2022/11/03 01:03:02;;;;;;;;;;;8.70;99.90;;;;;;5060028;28;20451;-64
2022/11/03 01:08:17;;;;;;;;;;;8.90;99.90;;;;;;5054009;28;20342;-64
2022/11/03 01:13:30;;;;;;;;;;;8.80;99.90;;;;;;5060106;28;19978;-64
2022/11/03 01:15:58;;;;;;;;;;;8.70;99.90;;;;;;5060316;28;19964;-64
2022/11/03 01:18:26;;;;;;;;;;;8.60;99.90;;;;;;5066322;28;19982;-64
2022/11/03 01:20:54;;;;;;;;;;;8.60;99.90;;;;;;5051913;28;20348;-64
2022/11/03 01:23:23;;;;;;;;;;;8.60;99.90;;;;;;5058045;28;19968;-64
2022/11/03 01:25:51;;;;;;;;;;;8.60;99.90;;;;;;5052756;28;19968;-64
2022/11/03 01:28:18;;;;;;;;;;;8.60;99.90;;;;;;5052747;28;19968;-64
2022/11/03 01:30:46;;;;;;;;;;;8.50;99.90;;;;;;5052001;28;19968;-64
2022/11/03 01:33:14;;;;;;;;;;;8.60;99.90;;;;;;5052371;28;19973;-64
2022/11/03 01:35:42;;;;;;;;;;;8.50;99.90;;;;;;5059436;28;19963;-64
2022/11/03 01:38:10;;;;;;;;;;;8.50;99.90;;;;;;5054441;28;19968;-64
2022/11/03 01:40:39;;;;;;;;;;;8.60;99.90;;;;;;5052877;28;20341;-64
2022/11/03 01:43:16;;;;;;;;;;;8.60;99.90;;;;;;5050415;28;19976;-64
2022/11/03 01:45:44;;;;;;;;;;;8.50;99.90;;;;;;5044460;28;20337;-63
2022/11/03 01:48:12;;;;;;;;;;;8.30;99.90;;;;;;5058959;28;20056;-64
2022/11/03 01:50:41;;;;;;;;;;;8.40;99.90;;;;;;5056039;28;19964;-64
2022/11/03 01:53:09;;;;;;;;;;;8.30;99.90;;;;;;5054227;28;19968;-64
2022/11/03 01:55:38;;;;;;;;;;;8.40;99.90;;;;;;5054005;28;19974;-64
2022/11/03 01:58:13;;;;;;;;;;;8.50;99.90;;;;;;5054274;28;19972;-65
2022/11/03 02:00:42;;;;;;;;;;;8.30;99.90;;;;;;5052525;28;19963;-64
2022/11/03 02:03:10;;;;;;;;;;;8.30;99.90;;;;;;5056336;28;19972;-63
2022/11/03 02:05:38;;;;;;;;;;;8.30;99.90;;;;;;5045236;28;19968;-64
2022/11/03 02:08:08;;;;;;;;;;;8.20;99.90;;;;;;5061548;28;19991;-64
2022/11/03 02:10:41;;;;;;;;;;;8.40;99.90;;;;;;5056653;28;20344;-64
2022/11/03 02:13:16;;;;;;;;;;;8.60;99.90;;;;;;5063900;28;19976;-64
2022/11/03 02:15:44;;;;;;;;;;;8.70;99.90;;;;;;5052833;28;20333;-63
2022/11/03 02:18:12;;;;;;;;;;;8.90;99.90;;;;;;5062457;28;19975;-64
2022/11/03 02:20:40;;;;;;;;;;;8.90;99.90;;;;;;5056811;28;20091;-64
2022/11/03 02:23:21;;;;;;;;;;;9.00;99.90;;;;;;5053549;28;19968;-64
2022/11/03 02:25:51;;;;;;;;;;;9.10;99.90;;;;;;5055548;28;19964;-63
2022/11/03 02:28:20;;;;;;;;;;;9.10;99.90;;;;;;5060846;28;19968;-64
2022/11/03 02:30:50;;;;;;;;;;;9.10;99.90;;;;;;5057318;28;19971;-64
2022/11/03 02:33:26;;;;;;;;;;;9.20;99.90;;;;;;5052462;28;20352;-64
2022/11/03 02:35:56;;;;;;;;;;;9.20;99.90;;;;;;5061512;28;19963;-64
2022/11/03 02:38:26;;;;;;;;;;;9.20;99.90;;;;;;5060184;28;19967;-64
2022/11/03 02:40:58;;;;;;;;;;;9.20;99.90;;;;;;5057629;28;20347;-65
2022/11/03 02:43:27;;;;;;;;;;;9.20;99.90;;;;;;5059674;28;19964;-64
2022/11/03 02:45:55;;;;;;;;;;;9.10;99.90;;;;;;5054279;28;20475;-64
2022/11/03 02:48:23;;;;;;;;;;;9.10;99.90;;;;;;5054594;28;20459;-65
2022/11/03 02:50:51;;;;;;;;;;;9.10;99.90;;;;;;5075706;28;20073;-64
2022/11/03 02:53:19;;;;;;;;;;;9.20;99.90;;;;;;5060615;28;19968;-64
2022/11/03 02:55:50;;;;;;;;;;;9.20;99.90;;;;;;5051938;28;19968;-64
2022/11/03 02:58:23;;;;;;;;;;;9.20;99.90;;;;;;5064393;28;19975;-64
2022/11/03 03:00:54;;;;;;;;;;;9.20;99.90;;;;;;5058983;28;20058;-64
2022/11/03 03:03:24;;;;;;;;;;;9.10;99.90;;;;;;5055009;28;20022;-64
2022/11/03 03:05:53;;;;;;;;;;;9.20;99.90;;;;;;5064958;28;20470;-64
2022/11/03 03:08:22;;;;;;;;;;;9.20;99.90;;;;;;5064117;28;19968;-64
2022/11/03 03:10:50;;;;;;;;;;;9.20;99.90;;;;;;5061555;28;20075;-63
2022/11/03 03:13:19;;;;;;;;;;;9.20;99.90;;;;;;5052694;28;20453;-65
2022/11/03 03:15:52;;;;;;;;;;;9.00;99.90;;;;;;5053062;28;19968;-63
2022/11/03 03:18:23;;;;;;;;;;;9.00;99.90;;;;;;5056371;28;19968;-64
2022/11/03 03:20:54;;;;;;;;;;;9.10;99.90;;;;;;5064643;28;19967;-64
2022/11/03 03:23:23;;;;;;;;;;;9.10;99.90;;;;;;5056461;28;20360;-64
2022/11/03 03:25:53;;;;;;;;;;;9.10;99.90;;;;;;5055096;28;19971;-63
2022/11/03 03:28:22;;;;;;;;;;;9.20;99.90;;;;;;5060074;28;19980;-63
2022/11/03 03:30:52;;;;;;;;;;;9.10;99.90;;;;;;5052545;28;19968;-64
2022/11/03 03:33:20;;;;;;;;;;;9.10;99.90;;;;;;5054969;28;19972;-64
2022/11/03 03:35:50;;;;;;;;;;;9.20;99.90;;;;;;5054889;28;20023;-64
2022/11/03 03:38:20;;;;;;;;;;;9.00;99.90;;;;;;5055981;28;20421;-64
2022/11/03 03:40:50;;;;;;;;;;;9.10;99.90;;;;;;5060013;28;19976;-64
2022/11/03 03:43:19;;;;;;;;;;;9.10;99.90;;;;;;5061172;28;19971;-64
2022/11/03 03:45:49;;;;;;;;;;;9.20;99.90;;;;;;5058157;28;19964;-64
2022/11/03 03:48:19;;;;;;;;;;;9.20;99.90;;;;;;5056422;28;19995;-64
2022/11/03 03:50:47;;;;;;;;;;;9.20;99.90;;;;;;5060738;28;20578;-64
2022/11/03 03:53:15;;;;;;;;;;;9.10;99.90;;;;;;5056675;28;19968;-64
2022/11/03 03:55:44;;;;;;;;;;;9.10;99.90;;;;;;5060333;28;19987;-64
2022/11/03 03:58:13;;;;;;;;;;;9.10;99.90;;;;;;5070991;28;19968;-64
2022/11/03 04:00:41;;;;;;;;;;;9.20;99.90;;;;;;5061107;28;20447;-63
2022/11/03 04:03:13;;;;;;;;;;;9.10;99.90;;;;;;5067112;28;20009;-64
2022/11/03 04:05:42;;;;;;;;;;;9.10;99.90;;;;;;5057850;28;19991;-64
2022/11/03 04:08:10;;;;;;;;;;;9.10;99.90;;;;;;5040273;28;19972;-64
2022/11/03 04:10:38;;;;;;;;;;;9.10;99.90;;;;;;5053358;28;20017;-64
2022/11/03 04:24:08;;;;;;;;;;;9.00;99.90;;;;;;5050742;28;19968;-64
2022/11/03 04:26:36;;;;;;;;;;;9.00;99.90;;;;;;5052624;28;19965;-64
2022/11/03 04:29:04;;;;;;;;;;;9.00;99.90;;;;;;5054496;28;19972;-64
2022/11/03 04:31:35;;;;;;;;;;;9.00;99.90;;;;;;5064094;28;19994;-64
2022/11/03 04:34:03;;;;;;;;;;;9.10;99.90;;;;;;5066842;28;19964;-64
2022/11/03 04:36:32;;;;;;;;;;;9.00;99.90;;;;;;5056963;28;19974;-64
2022/11/03 04:39:00;;;;;;;;;;;9.00;99.90;;;;;;5056345;28;19964;-64
2022/11/03 04:41:28;;;;;;;;;;;8.70;99.90;;;;;;5062912;28;20058;-63
2022/11/03 04:43:56;;;;;;;;;;;8.60;99.90;;;;;;5060529;28;19965;-64
2022/11/03 04:46:25;;;;;;;;;;;8.60;99.90;;;;;;5060842;28;20431;-63
2022/11/03 04:48:53;;;;;;;;;;;8.60;99.90;;;;;;5054260;28;19971;-64
2022/11/03 04:51:22;;;;;;;;;;;8.70;99.90;;;;;;5050994;28;19965;-64
2022/11/03 04:53:52;;;;;;;;;;;8.70;99.90;;;;;;5053311;28;19970;-64
2022/11/03 04:56:21;;;;;;;;;;;8.80;99.90;;;;;;5051456;28;19975;-64
2022/11/03 04:58:49;;;;;;;;;;;8.80;99.90;;;;;;5052186;28;19964;-64
2022/11/03 05:01:18;;;;;;;;;;;8.90;99.90;;;;;;5052332;28;19968;-64
2022/11/03 05:03:52;;;;;;;;;;;8.90;99.90;;;;;;5051956;28;20082;-64
2022/11/03 05:06:21;;;;;;;;;;;8.90;99.90;;;;;;5051307;28;20376;-64
2022/11/03 05:08:50;;;;;;;;;;;8.90;99.90;;;;;;5051837;28;19964;-64
2022/11/03 05:11:29;;;;;;;;;;;8.90;99.90;;;;;;5050797;28;19972;-64
2022/11/03 05:13:58;;;;;;;;;;;8.90;99.90;;;;;;5052156;28;19964;-64
2022/11/03 05:16:26;;;;;;;;;;;8.80;99.90;;;;;;5050437;28;19968;-64
2022/11/03 05:18:54;;;;;;;;;;;8.80;99.90;;;;;;5052919;28;20364;-64
2022/11/03 05:21:23;;;;;;;;;;;8.80;99.90;;;;;;5049872;28;19964;-64
2022/11/03 05:23:52;;;;;;;;;;;8.80;99.90;;;;;;5050645;28;20340;-64
2022/11/03 05:26:22;;;;;;;;;;;8.80;99.90;;;;;;5052087;28;19968;-64
2022/11/03 05:28:52;;;;;;;;;;;8.80;99.90;;;;;;5052860;28;19968;-64
2022/11/03 05:31:22;;;;;;;;;;;8.80;99.90;;;;;;5052533;28;20429;-64
2022/11/03 05:33:51;;;;;;;;;;;8.80;99.90;;;;;;5052766;28;20033;-64
2022/11/03 05:36:20;;;;;;;;;;;8.80;99.90;;;;;;5052938;28;20352;-65
2022/11/03 05:38:47;;;;;;;;;;;8.80;99.90;;;;;;5051619;28;19968;-64
2022/11/03 05:41:19;;;;;;;;;;;8.80;99.90;;;;;;5052459;28;20075;-64
2022/11/03 05:43:52;;;;;;;;;;;8.80;99.90;;;;;;5051990;28;19978;-64
2022/11/03 05:46:21;;;;;;;;;;;8.90;99.90;;;;;;5051894;28;20441;-64
2022/11/03 05:48:49;;;;;;;;;;;8.70;99.90;;;;;;5043600;28;19972;-64
2022/11/03 05:51:19;;;;;;;;;;;8.70;99.90;;;;;;5040324;28;19975;-64
2022/11/03 05:53:50;;;;;;;;;;;8.80;99.90;;;;;;5042694;28;19978;-64
2022/11/03 05:56:19;;;;;;;;;;;8.80;99.90;;;;;;5039270;28;20008;-65
2022/11/03 05:58:48;;;;;;;;;;;8.70;99.90;;;;;;5036545;28;19975;-64
2022/11/03 06:01:19;;;;;;;;;;;8.70;99.90;;;;;;5036942;28;20770;-64
2022/11/03 06:03:48;;;;;;;;;;;8.70;99.90;;;;;;5034744;28;19972;-64
2022/11/03 06:06:18;;;;;;;;;;;8.70;99.90;;;;;;5035110;28;19983;-65
2022/11/03 06:08:46;;;;;;;;;;;8.60;99.90;;;;;;5028395;28;19976;-64
2022/11/03 06:11:21;;;;;;;;;;;8.60;99.90;;;;;;5037435;28;19976;-65
2022/11/03 06:13:49;;;;;;;;;;;8.60;99.90;;;;;;5037829;28;19973;-64
2022/11/03 06:16:25;;;;;;;;;;;8.50;99.90;;;;;;5035167;28;20456;-64
2022/11/03 06:18:54;;;;;;;;;;;8.60;99.90;;;;;;5036083;28;19975;-64
2022/11/03 06:21:24;;;;;;;;;;;8.60;99.90;;;;;;5037502;28;19972;-64
2022/11/03 06:23:52;;;;;;;;;;;8.60;99.90;;;;;;5023577;28;19973;-64
2022/11/03 06:26:20;;;;;;;;;;;8.40;99.90;;;;;;5033762;28;20491;-64
2022/11/03 06:28:49;;;;;;;;;;;8.40;99.90;;;;;;5035533;28;19976;-64
2022/11/03 06:31:19;;;;;;;;;;;8.30;99.90;;;;;;5037225;28;20370;-64
2022/11/03 06:33:51;;;;;;;;;;;8.30;99.90;;;;;;5036036;28;20453;-64
2022/11/03 06:36:21;;;;;;;;;;;8.30;99.90;;;;;;5034426;28;20034;-64
2022/11/03 06:38:50;;;;;;;;;;;8.40;99.90;;;;;;5036360;28;20471;-64
2022/11/03 06:41:20;;;;;;;;;;;8.30;99.90;;;;;;5036749;28;19972;-64
2022/11/03 06:43:48;;;;;;;;;;;8.30;99.90;;;;;;5034995;28;19983;-64
2022/11/03 06:46:19;;;;;;;;;;;8.20;99.90;;;;;;5034598;28;19976;-64
2022/11/03 06:48:46;;;;;;;;;;;8.00;99.90;;;;;;5036235;28;19973;-64
2022/11/03 06:51:16;;;;;;;;;;;7.90;99.90;;;;;;5036489;28;20550;-64
2022/11/03 06:53:45;;;;;;;;;;;8.10;99.90;;;;;;5035499;28;19972;-64
2022/11/03 06:56:15;;;;;;;;;;;8.10;99.90;;;;;;5031375;28;19972;-64
2022/11/03 06:58:43;;;;;;;;;;;8.20;99.90;;;;;;5023632;28;19979;-63
2022/11/03 07:01:14;;;;;;;;;;;8.00;99.90;;;;;;5026328;28;19977;-64
2022/11/03 07:03:42;;;;;;;;;;;8.00;99.90;;;;;;5020088;28;20724;-64
2022/11/03 07:06:14;;;;;;;;;;;8.00;99.90;;;;;;5026484;28;19983;-64
2022/11/03 07:08:43;;;;;;;;;;;8.10;99.90;;;;;;5020262;28;19979;-64
2022/11/03 07:11:15;;;;;;;;;;;8.10;99.90;;;;;;5025877;28;19987;-64
2022/11/03 07:13:43;;;;;;;;;;;8.00;99.90;;;;;;5027753;28;20067;-64
2022/11/03 07:16:12;;;;;;;;;;;8.10;99.90;;;;;;5017640;28;19972;-64
2022/11/03 07:18:46;;;;;;;;;;;8.00;99.90;;;;;;5025717;28;19973;-64
2022/11/03 07:21:24;;;;;;;;;;;8.20;99.90;;;;;;5023262;28;20016;-64
2022/11/03 07:23:52;;;;;;;;;;;8.20;99.90;;;;;;5027409;28;19975;-64
2022/11/03 07:26:21;;;;;;;;;;;8.20;99.90;;;;;;5031096;28;19979;-64
2022/11/03 07:28:49;;;;;;;;;;;8.20;99.90;;;;;;5030688;28;20495;-64
2022/11/03 07:31:20;;;;;;;;;;;8.20;99.90;;;;;;5039026;28;19968;-64
2022/11/03 07:33:47;;;;;;;;;;;8.20;99.90;;;;;;5038713;28;19964;-64
2022/11/03 07:36:18;;;;;;;;;;;8.30;99.90;;;;;;5032493;28;20015;-63
2022/11/03 07:38:47;;;;;;;;;;;8.40;99.90;;;;;;5047704;28;19968;-64
2022/11/03 07:41:18;;;;;;;;;;;8.50;99.90;;;;;;5054788;28;19975;-64
2022/11/03 07:43:51;;;;;;;;;;;8.70;99.90;;;;;;5054877;28;20055;-64
2022/11/03 07:46:20;;;;;;;;;;;8.80;99.90;;;;;;5054679;28;20403;-64
2022/11/03 07:48:48;;;;;;;;;;;8.80;99.90;;;;;;5054805;28;19968;-64
2022/11/03 07:51:19;;;;;;;;;;;9.00;99.90;;;;;;5054521;28;19968;-65
2022/11/03 07:53:48;;;;;;;;;;;9.20;99.90;;;;;;5043926;28;19965;-66
2022/11/03 07:56:18;;;;;;;;;;;9.20;99.90;;;;;;5038137;28;20429;-64
2022/11/03 07:58:49;;;;;;;;;;;9.10;99.90;;;;;;5054575;28;19975;-64
2022/11/03 08:01:23;;;;;;;;;;;9.20;99.90;;;;;;5054136;28;19972;-64
2022/11/03 08:03:51;;;;;;;;;;;9.20;99.90;;;;;;5054442;28;19979;-64
2022/11/03 08:06:19;;;;;;;;;;;9.40;99.90;;;;;;5054419;28;19975;-64
2022/11/03 08:08:47;;;;;;;;;;;9.60;99.90;;;;;;5054363;28;19975;-64
2022/11/03 08:11:14;;;;;;;;;;;9.70;99.90;;;;;;5053787;28;19974;-64
2022/11/03 08:13:42;;;;;;;;;;;9.80;99.90;;;;;;5054302;28;20030;-64
2022/11/03 08:16:11;;;;;;;;;;;9.90;99.90;;;;;;5054026;28;19979;-64
2022/11/03 08:18:39;;;;;;;;;;;9.80;99.90;;;;;;5054145;28;20525;-65
2022/11/03 08:21:07;;;;;;;;;;;10.00;99.90;;;;;;5053990;28;19968;-64
2022/11/03 08:23:34;;;;;;;;;;;9.80;99.90;;;;;;5045161;28;19964;-64
2022/11/03 08:26:02;;;;;;;;;;;9.90;99.90;;;;;;5033645;28;20338;-64
2022/11/03 08:28:30;;;;;;;;;;;9.90;99.90;;;;;;5034047;28;19984;-65
2022/11/03 08:31:00;;;;;;;;;;;9.90;99.90;;;;;;5033852;28;19975;-64
2022/11/03 08:33:30;;;;;;;;;;;10.20;99.90;;;;;;5034115;28;19968;-64
2022/11/03 08:35:58;;;;;;;;;;;10.40;99.90;;;;;;5033825;28;19969;-63
2022/11/03 08:38:25;;;;;;;;;;;10.50;99.90;;;;;;5034090;28;20022;-64
2022/11/03 08:40:54;;;;;;;;;;;10.90;99.90;;;;;;5033493;28;20067;-65
2022/11/03 08:43:22;;;;;;;;;;;11.20;99.90;;;;;;5034071;28;19973;-65
2022/11/03 08:45:52;;;;;;;;;;;11.40;99.90;;;;;;5033477;28;20426;-64
2022/11/03 08:48:20;;;;;;;;;;;11.50;99.90;;;;;;5032847;28;19987;-64
2022/11/03 08:50:52;;;;;;;;;;;11.60;99.90;;;;;;5033424;28;19969;-64
2022/11/03 08:53:20;;;;;;;;;;;11.70;99.90;;;;;;5033632;28;20496;-64
2022/11/03 08:55:48;;;;;;;;;;;11.90;99.90;;;;;;5032888;28;20341;-65
2022/11/03 08:58:16;;;;;;;;;;;12.00;99.90;;;;;;5053370;28;19968;-64
2022/11/03 09:00:43;;;;;;;;;;;12.00;99.90;;;;;;5053315;28;19972;-64
2022/11/03 09:03:11;;;;;;;;;;;12.40;99.90;;;;;;5053378;28;19976;-64
2022/11/03 09:05:39;;;;;;;;;;;12.70;99.90;;;;;;5053212;28;19972;-65
2022/11/03 09:08:08;;;;;;;;;;;12.80;99.90;;;;;;5053252;28;19994;-64
2022/11/03 09:10:56;;;;;;;;;;;13.10;99.90;;;;;;5052731;28;19972;-65
2022/11/03 09:13:23;;;;;;;;;;;13.40;99.90;;;;;;5053253;28;19976;-65
2022/11/03 09:15:51;;;;;;;;;;;13.50;99.90;;;;;;5052710;28;20441;-65
2022/11/03 09:18:19;;;;;;;;;;;13.70;99.90;;;;;;5053018;28;20045;-65
2022/11/03 09:20:47;;;;;;;;;;;13.80;99.90;;;;;;5053044;28;20360;-65
2022/11/03 09:23:16;;;;;;;;;;;13.50;99.90;;;;;;5052888;28;19969;-65
2022/11/03 09:25:43;;;;;;;;;;;13.30;99.90;;;;;;5052342;28;19964;-64
2022/11/03 09:28:11;;;;;;;;;;;13.20;99.90;;;;;;5052891;28;20360;-64
2022/11/03 09:30:39;;;;;;;;;;;13.10;99.90;;;;;;5052621;28;19975;-65
2022/11/03 09:33:06;;;;;;;;;;;13.10;99.90;;;;;;5052650;28;19972;-64
2022/11/03 09:35:34;;;;;;;;;;;13.30;99.90;;;;;;5052497;28;19975;-65
2022/11/03 09:38:02;;;;;;;;;;;13.50;99.90;;;;;;5052884;28;19995;-64
2022/11/03 09:40:31;;;;;;;;;;;13.60;99.90;;;;;;5052563;28;19968;-65
2022/11/03 09:42:59;;;;;;;;;;;13.70;99.90;;;;;;5052610;28;19978;-65
2022/11/03 09:45:27;;;;;;;;;;;13.90;99.90;;;;;;5052917;28;20082;-65
2022/11/03 09:47:55;;;;;;;;;;;13.90;99.90;;;;;;5052457;28;19968;-65
2022/11/03 09:50:23;;;;;;;;;;;13.70;99.90;;;;;;5052350;28;19978;-65
2022/11/03 09:52:53;;;;;;;;;;;13.60;99.90;;;;;;5052404;28;19969;-65
2022/11/03 09:55:22;;;;;;;;;;;13.60;99.90;;;;;;5051676;28;20014;-64
2022/11/03 09:57:54;;;;;;;;;;;13.60;99.90;;;;;;5051650;28;19968;-64
2022/11/03 10:00:22;;;;;;;;;;;13.40;99.90;;;;;;5052487;28;20525;-65
2022/11/03 10:02:50;;;;;;;;;;;13.40;99.90;;;;;;5052264;28;19975;-64
2022/11/03 10:05:20;;;;;;;;;;;13.50;99.90;;;;;;5052244;28;19979;-65
2022/11/03 10:07:48;;;;;;;;;;;13.60;99.90;;;;;;5052115;28;20463;-64
2022/11/03 10:10:17;;;;;;;;;;;13.70;99.90;;;;;;5052058;28;19974;-65
2022/11/03 10:12:45;;;;;;;;;;;13.90;99.90;;;;;;5051833;28;19968;-65
2022/11/03 10:15:17;;;;;;;;;;;14.00;99.90;;;;;;5051895;28;19979;-64
2022/11/03 10:17:46;;;;;;;;;;;14.00;99.90;;;;;;5051941;28;19968;-65
2022/11/03 10:20:14;;;;;;;;;;;13.90;99.90;;;;;;5052018;28;19973;-65
2022/11/03 10:22:43;;;;;;;;;;;13.80;99.90;;;;;;5051882;28;20551;-64
2022/11/03 10:25:32;;;;;;;;;;;13.80;99.90;;;;;;5053246;28;19973;-65
2022/11/03 10:28:14;;;;;;;;;;;13.80;99.90;;;;;;5058529;28;20432;-64
2022/11/03 10:30:50;;;;;;;;;;;13.70;99.90;;;;;;5029636;28;19983;-64
2022/11/03 10:33:39;;;;;;;;;;;13.80;99.90;;;;;;5031873;28;20448;-64
2022/11/03 10:36:21;;;;;;;;;;;13.80;99.90;;;;;;5031822;28;19973;-65
2022/11/03 10:38:49;;;;;;;;;;;13.80;99.90;;;;;;5031987;28;19974;-64
2022/11/03 10:41:18;;;;;;;;;;;13.80;99.90;;;;;;5031828;28;19979;-64
2022/11/03 10:44:00;;;;;;;;;;;14.00;99.90;;;;;;5031741;28;19967;-64
2022/11/03 10:46:29;;;;;;;;;;;13.90;99.90;;;;;;5031686;28;20351;-65
2022/11/03 10:49:18;;;;;;;;;;;13.90;99.90;;;;;;5031896;28;19968;-64
2022/11/03 10:51:47;;;;;;;;;;;13.70;99.90;;;;;;5031450;28;20067;-64
2022/11/03 10:54:16;;;;;;;;;;;13.60;99.90;;;;;;5036368;28;19978;-64
2022/11/03 10:56:44;;;;;;;;;;;13.70;99.90;;;;;;5042279;28;19964;-64
2022/11/03 10:59:16;;;;;;;;;;;13.70;99.90;;;;;;5031677;28;19986;-64
2022/11/03 11:01:45;;;;;;;;;;;13.80;99.90;;;;;;5031668;28;19975;-64
2022/11/03 11:04:14;;;;;;;;;;;13.80;99.90;;;;;;5031692;28;20079;-64
2022/11/03 11:06:42;;;;;;;;;;;13.70;99.90;;;;;;5031578;28;19977;-64
2022/11/03 11:09:11;;;;;;;;;;;13.70;99.90;;;;;;5031817;28;19979;-64
2022/11/03 11:11:39;;;;;;;;;;;13.70;99.90;;;;;;5034407;28;19979;-64
2022/11/03 11:14:23;;;;;;;;;;;13.60;99.90;;;;;;5035517;28;19975;-64
2022/11/03 11:16:53;;;;;;;;;;;13.60;99.90;;;;;;5035651;28;20353;-64
2022/11/03 11:19:21;;;;;;;;;;;13.70;99.90;;;;;;5035883;28;19979;-64
2022/11/03 11:21:50;;;;;;;;;;;13.70;99.90;;;;;;5035789;28;19973;-65
2022/11/03 11:24:32;;;;;;;;;;;13.80;99.90;;;;;;5040680;28;19968;-64
2022/11/03 11:27:00;;;;;;;;;;;13.90;99.90;;;;;;5047132;28;19969;-64
2022/11/03 11:29:36;;;;;;;;;;;13.80;99.90;;;;;;5035477;28;19968;-64
2022/11/03 11:32:19;;;;;;;;;;;13.90;99.90;;;;;;5035364;28;19975;-64
2022/11/03 11:34:48;;;;;;;;;;;13.90;99.90;;;;;;5032945;28;19971;-64
2022/11/03 11:37:32;;;;;;;;;;;13.80;99.90;;;;;;5034921;28;20063;-64
2022/11/03 11:40:00;;;;;;;;;;;13.80;99.90;;;;;;5034807;28;19968;-64
2022/11/03 11:42:28;;;;;;;;;;;13.80;99.90;;;;;;5034988;28;20001;-64
2022/11/03 11:45:01;;;;;;;;;;;13.80;99.90;;;;;;5034931;28;20055;-64
2022/11/03 11:47:43;;;;;;;;;;;13.70;99.90;;;;;;5034860;28;20015;-64
2022/11/03 11:50:21;;;;;;;;;;;13.80;99.90;;;;;;5035030;28;20336;-64
2022/11/03 11:52:50;;;;;;;;;;;13.80;99.90;;;;;;5034924;28;19978;-64
2022/11/03 11:55:20;;;;;;;;;;;13.80;99.90;;;;;;5047334;28;20360;-64
2022/11/03 11:57:48;;;;;;;;;;;13.80;99.90;;;;;;5042400;28;19967;-64
2022/11/03 12:00:21;;;;;;;;;;;13.60;99.90;;;;;;5034432;28;20008;-64
2022/11/03 12:02:49;;;;;;;;;;;13.60;99.90;;;;;;5034666;28;19968;-64
2022/11/03 12:05:24;;;;;;;;;;;13.50;99.90;;;;;;5034505;28;19980;-64
2022/11/03 12:07:52;;;;;;;;;;;13.40;99.90;;;;;;5034363;28;19987;-64
2022/11/03 12:10:22;;;;;;;;;;;13.30;99.90;;;;;;5034234;28;19967;-64
2022/11/03 12:12:50;;;;;;;;;;;13.20;99.90;;;;;;5034234;28;19973;-64
2022/11/03 12:15:36;;;;;;;;;;;13.30;99.90;;;;;;5034290;28;19968;-64
2022/11/03 12:18:18;;;;;;;;;;;13.30;99.90;;;;;;5034321;28;19976;-64
2022/11/03 12:20:48;;;;;;;;;;;13.10;99.90;;;;;;5052966;28;20025;-64
2022/11/03 12:23:30;;;;;;;;;;;13.10;99.90;;;;;;5054189;28;19976;-64
2022/11/03 12:25:58;;;;;;;;;;;13.10;99.90;;;;;;5053636;28;20003;-64
2022/11/03 12:28:36;;;;;;;;;;;13.20;99.90;;;;;;5036214;28;19969;-63
2022/11/03 12:31:04;;;;;;;;;;;13.00;99.90;;;;;;5033946;28;19995;-64
2022/11/03 12:33:31;;;;;;;;;;;13.10;99.90;;;;;;5033797;28;20067;-64
2022/11/03 12:36:00;;;;;;;;;;;13.10;99.90;;;;;;5033726;28;19979;-64
2022/11/03 12:38:28;;;;;;;;;;;13.20;99.90;;;;;;5033971;28;19969;-63
2022/11/03 12:40:56;;;;;;;;;;;13.20;99.90;;;;;;5033581;28;20452;-64
2022/11/03 12:43:23;;;;;;;;;;;13.30;99.90;;;;;;5033781;28;19972;-64
2022/11/03 12:45:51;;;;;;;;;;;13.40;99.90;;;;;;5033559;28;19968;-64
2022/11/03 12:48:19;;;;;;;;;;;13.40;99.90;;;;;;5033916;28;20388;-64
2022/11/03 12:50:47;;;;;;;;;;;13.50;99.90;;;;;;5033619;28;19969;-64
2022/11/03 12:53:16;;;;;;;;;;;13.40;99.90;;;;;;5033538;28;19971;-64
2022/11/03 12:55:43;;;;;;;;;;;13.20;99.90;;;;;;5049860;28;20455;-64
2022/11/03 12:58:11;;;;;;;;;;;13.10;99.90;;;;;;5036890;28;19968;-63
2022/11/03 13:00:39;;;;;;;;;;;12.90;99.90;;;;;;5033514;28;19972;-64
2022/11/03 13:03:07;;;;;;;;;;;12.90;99.90;;;;;;5033606;28;19969;-64
2022/11/03 13:05:35;;;;;;;;;;;12.90;99.90;;;;;;5033391;28;19968;-65
2022/11/03 13:08:03;;;;;;;;;;;12.90;99.90;;;;;;5033339;28;19972;-64
2022/11/03 13:10:32;;;;;;;;;;;13.00;99.90;;;;;;5032993;28;20067;-64
2022/11/03 13:13:00;;;;;;;;;;;13.10;99.90;;;;;;5033073;28;19974;-64
2022/11/03 13:15:27;;;;;;;;;;;13.10;99.90;;;;;;5033156;28;19968;-64
2022/11/03 13:17:55;;;;;;;;;;;13.10;99.90;;;;;;5033145;28;19976;-64
2022/11/03 13:20:39;;;;;;;;;;;13.10;99.90;;;;;;5033062;28;20014;-64
2022/11/03 13:23:07;;;;;;;;;;;13.20;99.90;;;;;;5032722;28;19979;-64
2022/11/03 13:25:37;;;;;;;;;;;13.10;99.90;;;;;;5048543;28;20396;-64
2022/11/03 13:28:05;;;;;;;;;;;12.90;99.90;;;;;;5037507;28;20348;-65
2022/11/03 13:30:33;;;;;;;;;;;13.00;99.90;;;;;;5032543;28;19979;-66
2022/11/03 13:33:01;;;;;;;;;;;13.00;99.90;;;;;;5032274;28;19969;-65
2022/11/03 13:35:28;;;;;;;;;;;13.10;99.90;;;;;;5033000;28;19971;-65
2022/11/03 13:37:57;;;;;;;;;;;13.10;99.90;;;;;;5032640;28;20033;-65
2022/11/03 13:40:24;;;;;;;;;;;13.20;99.90;;;;;;5032380;28;20349;-65
2022/11/03 13:43:13;;;;;;;;;;;13.20;99.90;;;;;;5032734;28;19988;-65
2022/11/03 13:45:41;;;;;;;;;;;13.20;99.90;;;;;;5032646;28;20014;-64
2022/11/03 13:48:09;;;;;;;;;;;13.30;99.90;;;;;;5032666;28;19975;-64
2022/11/03 13:50:58;;;;;;;;;;;13.40;99.90;;;;;;5032140;28;20356;-64
2022/11/03 13:53:27;;;;;;;;;;;13.40;99.90;;;;;;5032347;28;19969;-64
2022/11/03 13:56:14;;;;;;;;;;;13.30;99.90;;;;;;5048292;28;19968;-65
2022/11/03 13:58:50;;;;;;;;;;;13.40;99.90;;;;;;5032666;28;20059;-64
2022/11/03 14:01:38;;;;;;;;;;;13.30;99.90;;;;;;5051826;28;20436;-64
2022/11/03 14:04:07;;;;;;;;;;;13.30;99.90;;;;;;5052271;28;20079;-64
2022/11/03 14:06:55;;;;;;;;;;;13.30;99.90;;;;;;5051989;28;19972;-64
2022/11/03 14:09:22;;;;;;;;;;;13.40;99.90;;;;;;5052419;28;20184;-64
2022/11/03 14:14:37;;;;;;;;;;;13.40;99.90;;;;;;5052318;28;19975;-64
2022/11/03 14:17:05;;;;;;;;;;;13.40;99.90;;;;;;5052452;28;19975;-64
2022/11/03 14:19:32;;;;;;;;;;;13.40;99.90;;;;;;5051954;28;19973;-64
2022/11/03 14:22:10;;;;;;;;;;;13.40;99.90;;;;;;5051932;28;20445;-65
2022/11/03 14:24:38;;;;;;;;;;;13.40;99.90;;;;;;5051923;28;19987;-65
2022/11/03 14:27:05;;;;;;;;;;;13.40;99.90;;;;;;5044304;28;19973;-64
2022/11/03 14:29:33;;;;;;;;;;;13.40;99.90;;;;;;5031808;28;20449;-65
2022/11/03 14:32:02;;;;;;;;;;;13.30;99.90;;;;;;5032054;28;19968;-64
2022/11/03 14:34:30;;;;;;;;;;;13.20;99.90;;;;;;5031952;28;19969;-65
2022/11/03 14:36:58;;;;;;;;;;;13.10;99.90;;;;;;5032051;28;19976;-64
2022/11/03 14:39:26;;;;;;;;;;;13.20;99.90;;;;;;5031871;28;19979;-65
2022/11/03 14:42:06;;;;;;;;;;;13.20;99.90;;;;;;5031560;28;19968;-64
2022/11/03 14:44:35;;;;;;;;;;;13.30;99.90;;;;;;5031935;28;19975;-64
2022/11/03 14:47:05;;;;;;;;;;;13.30;99.90;;;;;;5036075;28;20318;-64
2022/11/03 14:49:34;;;;;;;;;;;13.30;99.90;;;;;;5035914;28;20071;-64
2022/11/03 14:52:02;;;;;;;;;;;13.40;99.90;;;;;;5035595;28;19968;-65
2022/11/03 14:54:30;;;;;;;;;;;13.40;99.90;;;;;;5042279;28;20004;-64
2022/11/03 14:56:58;;;;;;;;;;;13.40;99.90;;;;;;5049001;28;19963;-65
2022/11/03 14:59:26;;;;;;;;;;;13.50;99.90;;;;;;5035828;28;20071;-64
2022/11/03 15:01:54;;;;;;;;;;;13.50;99.90;;;;;;5035427;28;19968;-65
2022/11/03 15:04:23;;;;;;;;;;;13.50;99.90;;;;;;5035416;28;20067;-64